createdAt,value
2019-04-10T00:00:11.125Z,64.32
2019-04-10T00:02:39.786Z,64.35
2019-04-10T00:05:08.193Z,64.40
2019-04-10T00:07:37.290Z,64.41
2019-04-10T00:10:06.350Z,64.31
2019-04-10T00:12:35.914Z,64.29
2019-04-10T00:15:05.157Z,64.28
2019-04-10T00:17:34.043Z,64.16
2019-04-10T00:20:02.433Z,64.17
2019-04-10T00:22:31.080Z,64.22
2019-04-10T00:25:00.101Z,64.10
2019-04-10T00:27:28.472Z,64.07
2019-04-10T00:29:57.506Z,64.20
2019-04-10T00:32:25.793Z,64.04
2019-04-10T00:34:55.978Z,64.13
2019-04-10T00:37:28.706Z,64.40
2019-04-10T00:39:55.067Z,64.46
2019-04-10T00:42:23.371Z,64.50
2019-04-10T00:44:52.220Z,64.62
2019-04-10T00:47:21.193Z,64.79
2019-04-10T00:49:50.336Z,64.63
2019-04-10T00:52:19.708Z,64.59
2019-04-10T00:54:48.779Z,64.57
2019-04-10T00:57:17.163Z,64.62
2019-04-10T00:59:45.386Z,64.58
2019-04-10T01:02:13.963Z,64.57
2019-04-10T01:04:42.566Z,64.54
2019-04-10T01:07:11.175Z,64.52
2019-04-10T01:09:39.801Z,64.59
2019-04-10T01:12:08.049Z,64.71
2019-04-10T01:14:36.241Z,64.75
2019-04-10T01:17:06.217Z,64.84
2019-04-10T01:19:34.439Z,64.78
2019-04-10T01:22:03.106Z,64.65
2019-04-10T01:24:31.372Z,64.61
2019-04-10T01:26:59.583Z,64.64
2019-04-10T01:29:27.778Z,64.77
2019-04-10T01:31:56.014Z,64.77
2019-04-10T01:34:25.329Z,64.91
2019-04-10T01:36:54.624Z,64.87
2019-04-10T01:39:24.580Z,64.91
2019-04-10T01:41:52.860Z,64.91
2019-04-10T01:44:21.083Z,65.05
2019-04-10T01:46:49.273Z,65.08
2019-04-10T01:49:17.792Z,65.04
2019-04-10T01:51:46.120Z,65.10
2019-04-10T01:54:15.175Z,65.21
2019-04-10T01:56:43.888Z,65.34
2019-04-10T01:59:12.404Z,65.37
2019-04-10T02:01:57.302Z,65.45
2019-04-10T02:04:25.524Z,65.59
2019-04-10T02:06:53.854Z,65.82
2019-04-10T02:09:22.020Z,65.80
2019-04-10T02:11:50.283Z,65.77
2019-04-10T02:14:18.442Z,65.83
2019-04-10T02:16:47.282Z,65.86
2019-04-10T02:19:16.350Z,65.92
2019-04-10T02:21:44.672Z,65.95
2019-04-10T02:24:12.902Z,66.02
2019-04-10T02:26:41.385Z,66.09
2019-04-10T02:29:11.263Z,66.17
2019-04-10T02:31:39.792Z,66.46
2019-04-10T02:34:09.400Z,66.39
2019-04-10T02:36:38.699Z,66.50
2019-04-10T02:39:19.457Z,66.70
2019-04-10T02:41:38.596Z,66.70
2019-04-10T02:44:07.889Z,67.00
2019-04-10T02:46:36.871Z,66.96
2019-04-10T02:49:06.205Z,67.00
2019-04-10T02:51:35.659Z,67.21
2019-04-10T02:54:05.034Z,67.43
2019-04-10T02:56:36.682Z,67.45
2019-04-10T02:59:05.143Z,67.47
2019-04-10T03:01:33.532Z,67.60
2019-04-10T03:04:03.304Z,67.53
2019-04-10T03:06:33.474Z,67.72
2019-04-10T03:09:16.337Z,67.77
2019-04-10T03:11:33.035Z,67.89
2019-04-10T03:14:03.389Z,67.92
2019-04-10T03:16:31.326Z,68.07
2019-04-10T03:18:59.619Z,68.13
2019-04-10T03:21:27.828Z,68.21
2019-04-10T03:23:56.059Z,68.10
2019-04-10T03:26:24.260Z,68.25
2019-04-10T03:28:53.457Z,68.39
2019-04-10T03:31:23.016Z,68.49
2019-04-10T03:33:55.340Z,68.53
2019-04-10T03:36:23.316Z,68.49
2019-04-10T03:38:59.538Z,68.55
2019-04-10T03:41:22.011Z,68.69
2019-04-10T03:43:50.192Z,68.78
2019-04-10T03:46:19.461Z,68.82
2019-04-10T03:48:49.361Z,68.83
2019-04-10T03:51:18.579Z,69.21
2019-04-10T03:53:46.943Z,69.21
2019-04-10T03:56:15.778Z,68.95
2019-04-10T03:58:44.457Z,68.99
2019-04-10T04:01:12.671Z,68.94
2019-04-10T04:03:40.935Z,68.94
2019-04-10T04:06:09.493Z,69.06
2019-04-10T04:08:37.716Z,69.03
2019-04-10T04:11:05.931Z,69.10
2019-04-10T04:13:34.141Z,68.99
2019-04-10T04:16:02.806Z,68.95
2019-04-10T04:18:31.172Z,68.92
2019-04-10T04:20:59.420Z,68.90
2019-04-10T04:23:27.785Z,68.88
2019-04-10T04:25:56.854Z,68.92
2019-04-10T04:28:25.741Z,69.01
2019-04-10T04:30:54.048Z,68.92
2019-04-10T04:33:23.220Z,68.93
2019-04-10T04:35:51.499Z,68.98
2019-04-10T04:38:19.998Z,69.01
2019-04-10T04:40:48.721Z,68.97
2019-04-10T04:43:17.017Z,68.92
2019-04-10T04:45:46.047Z,68.92
2019-04-10T04:48:14.887Z,68.90
2019-04-10T04:50:43.611Z,68.77
2019-04-10T04:53:11.759Z,68.75
2019-04-10T04:55:40.047Z,68.78
2019-04-10T04:58:09.709Z,68.69
2019-04-10T05:00:38.089Z,68.65
2019-04-10T05:03:07.681Z,68.57
2019-04-10T05:05:35.988Z,68.50
2019-04-10T05:08:05.911Z,68.47
2019-04-10T05:10:35.606Z,68.30
2019-04-10T05:13:04.095Z,68.01
2019-04-10T05:15:33.253Z,65.63
2019-04-10T05:18:02.035Z,62.07
2019-04-10T05:20:41.232Z,58.98
2019-04-10T05:23:00.342Z,56.58
2019-04-10T05:25:29.400Z,54.40
2019-04-10T05:27:57.676Z,52.46
2019-04-10T05:30:27.199Z,50.54
2019-04-10T05:32:55.716Z,49.52
2019-04-10T05:35:23.942Z,48.49
2019-04-10T05:37:52.148Z,47.50
2019-04-10T05:40:20.366Z,46.86
2019-04-10T05:42:49.119Z,46.08
2019-04-10T05:45:17.527Z,45.47
2019-04-10T05:47:46.567Z,44.83
2019-04-10T05:50:15.202Z,44.55
2019-04-10T05:52:43.483Z,43.85
2019-04-10T05:55:11.856Z,43.27
2019-04-10T05:57:40.663Z,43.00
2019-04-10T06:00:10.416Z,42.96
2019-04-10T06:02:39.827Z,42.54
2019-04-10T06:05:08.166Z,42.85
2019-04-10T06:07:37.125Z,42.89
2019-04-10T06:10:10.223Z,42.99
2019-04-10T06:12:38.276Z,43.09
2019-04-10T06:15:08.725Z,43.75
2019-04-10T06:17:38.482Z,44.64
2019-04-10T06:20:14.220Z,45.92
2019-04-10T06:22:41.550Z,47.33
2019-04-10T06:25:11.715Z,48.21
2019-04-10T06:27:40.766Z,48.61
2019-04-10T06:30:09.973Z,48.71
2019-04-10T06:32:38.279Z,48.26
2019-04-10T06:35:08.080Z,48.50
2019-04-10T06:37:37.999Z,48.42
2019-04-10T06:40:15.335Z,48.57
2019-04-10T06:42:46.232Z,48.66
2019-04-10T06:45:07.507Z,49.08
2019-04-10T06:47:36.162Z,49.39
2019-04-10T06:50:06.608Z,49.42
2019-04-10T06:52:34.854Z,49.55
2019-04-10T06:55:04.948Z,49.46
2019-04-10T06:57:45.135Z,49.37
2019-04-10T07:00:06.467Z,49.35
2019-04-10T07:02:36.080Z,49.93
2019-04-10T07:05:08.754Z,50.28
2019-04-10T07:07:49.522Z,49.88
2019-04-10T07:10:20.485Z,49.33
2019-04-10T07:12:37.544Z,49.05
2019-04-10T07:15:06.233Z,49.24
2019-04-10T07:17:38.383Z,49.45
2019-04-10T07:20:05.802Z,49.64
2019-04-10T07:22:34.009Z,49.31
2019-04-10T07:25:02.859Z,49.27
2019-04-10T07:27:35.414Z,49.24
2019-04-10T07:30:01.615Z,49.54
2019-04-10T07:32:30.000Z,49.17
2019-04-10T07:35:01.055Z,48.58
2019-04-10T07:37:28.566Z,47.48
2019-04-10T07:39:59.751Z,47.62
2019-04-10T07:42:33.946Z,47.64
2019-04-10T07:44:56.964Z,47.38
2019-04-10T07:47:25.333Z,46.76
2019-04-10T07:49:54.534Z,45.84
2019-04-10T07:52:24.014Z,45.58
2019-04-10T07:54:52.465Z,45.33
2019-04-10T07:57:20.670Z,44.93
2019-04-10T07:59:49.710Z,44.79
2019-04-10T08:02:18.006Z,44.54
2019-04-10T08:04:47.294Z,45.26
2019-04-10T08:07:28.645Z,45.59
2019-04-10T08:09:46.377Z,45.63
2019-04-10T08:12:15.570Z,45.67
2019-04-10T08:14:44.277Z,45.52
2019-04-10T08:17:12.872Z,45.25
2019-04-10T08:19:41.520Z,45.18
2019-04-10T08:22:10.325Z,44.73
2019-04-10T08:24:38.635Z,44.94
2019-04-10T08:27:07.377Z,44.57
2019-04-10T08:29:36.436Z,44.24
2019-04-10T08:32:05.597Z,44.18
2019-04-10T08:34:33.903Z,44.18
2019-04-10T08:37:02.413Z,43.98
2019-04-10T08:39:37.732Z,43.79
2019-04-10T08:42:00.627Z,43.52
2019-04-10T08:44:29.868Z,43.42
2019-04-10T08:46:58.497Z,43.03
2019-04-10T08:49:26.746Z,42.52
2019-04-10T08:51:55.563Z,42.62
2019-04-10T08:54:24.144Z,44.09
2019-04-10T08:56:52.747Z,43.47
2019-04-10T08:59:21.398Z,43.21
2019-04-10T09:01:49.608Z,42.34
2019-04-10T09:04:17.942Z,42.88
2019-04-10T09:06:47.351Z,43.00
2019-04-10T09:09:15.678Z,42.89
2019-04-10T09:11:44.899Z,43.17
2019-04-10T09:14:13.805Z,42.13
2019-04-10T09:16:42.734Z,41.75
2019-04-10T09:19:11.968Z,42.24
2019-04-10T09:21:40.267Z,42.35
2019-04-10T09:24:08.544Z,42.24
2019-04-10T09:26:38.263Z,41.93
2019-04-10T09:29:06.807Z,42.12
2019-04-10T09:31:35.100Z,41.98
2019-04-10T09:34:03.382Z,41.18
2019-04-10T09:36:31.595Z,40.40
2019-04-10T09:39:01.010Z,38.13
2019-04-10T09:41:30.026Z,37.90
2019-04-10T09:43:58.359Z,38.04
2019-04-10T09:46:26.887Z,37.75
2019-04-10T09:48:56.202Z,38.13
2019-04-10T09:51:25.536Z,37.80
2019-04-10T09:53:53.869Z,37.56
2019-04-10T09:56:22.097Z,37.11
2019-04-10T09:58:51.864Z,37.04
2019-04-10T10:01:20.267Z,36.64
2019-04-10T10:03:48.766Z,35.54
2019-04-10T10:06:25.136Z,35.06
2019-04-10T10:08:48.075Z,35.70
2019-04-10T10:11:16.694Z,36.23
2019-04-10T10:13:45.863Z,37.17
2019-04-10T10:16:14.775Z,37.46
2019-04-10T10:18:43.638Z,38.00
2019-04-10T10:21:12.480Z,38.19
2019-04-10T10:23:40.732Z,37.25
2019-04-10T10:26:09.973Z,36.45
2019-04-10T10:28:39.851Z,36.10
2019-04-10T10:31:08.214Z,36.44
2019-04-10T10:33:37.475Z,35.11
2019-04-10T10:36:05.902Z,35.44
2019-04-10T10:38:34.868Z,35.71
2019-04-10T10:41:03.141Z,35.92
2019-04-10T10:43:32.189Z,36.29
2019-04-10T10:46:00.980Z,36.39
2019-04-10T10:48:29.570Z,36.08
2019-04-10T10:50:58.331Z,35.75
2019-04-10T10:53:28.203Z,34.89
2019-04-10T10:55:56.508Z,34.75
2019-04-10T10:58:25.820Z,34.10
2019-04-10T11:00:54.157Z,33.87
2019-04-10T11:03:22.543Z,33.53
2019-04-10T11:05:50.799Z,33.00
2019-04-10T11:08:20.876Z,32.55
2019-04-10T11:13:19.236Z,31.94
2019-04-10T11:15:48.483Z,31.64
2019-04-10T11:18:18.011Z,31.71
2019-04-10T11:20:47.919Z,30.96
2019-04-10T11:23:17.906Z,31.51
2019-04-10T11:25:46.539Z,32.09
2019-04-10T11:28:16.150Z,32.13
2019-04-10T11:30:44.990Z,31.95
2019-04-10T11:33:14.607Z,31.74
2019-04-10T11:35:43.939Z,32.12
2019-04-10T11:38:13.451Z,32.13
2019-04-10T11:40:41.998Z,31.61
2019-04-10T11:43:12.331Z,31.46
2019-04-10T11:45:45.445Z,30.80
2019-04-10T11:48:10.457Z,30.49
2019-04-10T11:50:42.495Z,31.03
2019-04-10T11:53:10.473Z,30.98
2019-04-10T11:55:43.872Z,31.10
2019-04-10T11:58:11.337Z,30.52
2019-04-10T12:00:50.547Z,30.82
2019-04-10T12:03:12.698Z,30.40
2019-04-10T12:05:42.255Z,30.78
2019-04-10T12:13:10.752Z,31.57
2019-04-10T12:15:38.975Z,31.05
2019-04-10T12:18:07.200Z,31.00
2019-04-10T12:20:35.498Z,30.76
2019-04-10T12:23:04.949Z,31.06
2019-04-10T12:25:33.213Z,31.12
2019-04-10T12:28:01.434Z,31.30
2019-04-10T12:30:29.643Z,31.15
2019-04-10T12:32:57.910Z,31.35
2019-04-10T12:35:26.260Z,30.65
2019-04-10T12:38:02.281Z,30.95
2019-04-10T12:40:24.517Z,30.97
2019-04-10T12:42:52.742Z,31.02
2019-04-10T12:45:22.029Z,31.20
2019-04-10T12:47:50.862Z,31.22
2019-04-10T12:50:19.097Z,30.99
2019-04-10T12:52:47.926Z,30.75
2019-04-10T12:55:16.778Z,30.45
2019-04-10T12:57:45.447Z,30.59
2019-04-10T13:02:42.738Z,31.26
2019-04-10T13:05:11.340Z,31.26
2019-04-10T13:07:40.015Z,31.51
2019-04-10T13:10:08.738Z,31.60
2019-04-10T13:12:37.651Z,31.84
2019-04-10T13:15:07.513Z,31.31
2019-04-10T13:17:36.073Z,31.85
2019-04-10T13:20:07.582Z,31.95
2019-04-10T13:22:36.120Z,32.09
2019-04-10T13:25:06.001Z,31.84
2019-04-10T13:27:34.821Z,30.70
2019-04-10T13:30:04.911Z,31.05
2019-04-10T13:32:34.020Z,31.36
2019-04-10T13:35:02.213Z,31.65
2019-04-10T13:37:31.621Z,31.85
2019-04-10T13:39:59.913Z,32.23
2019-04-10T13:42:28.119Z,32.09
2019-04-10T13:44:57.164Z,31.43
2019-04-10T13:47:25.855Z,31.05
2019-04-10T13:49:54.552Z,31.05
2019-04-10T13:52:23.791Z,30.94
2019-04-10T13:54:52.651Z,30.89
2019-04-10T13:57:22.190Z,30.71
2019-04-10T13:59:50.803Z,30.61
2019-04-10T14:02:21.514Z,30.67
2019-04-10T14:04:49.760Z,30.69
2019-04-10T14:07:18.065Z,30.97
2019-04-10T14:09:51.135Z,30.80
2019-04-10T14:12:16.631Z,30.57
2019-04-10T14:14:44.896Z,30.60
2019-04-10T14:17:13.201Z,31.05
2019-04-10T14:19:41.554Z,30.89
2019-04-10T14:22:09.831Z,30.96
2019-04-10T14:24:42.888Z,31.04
2019-04-10T14:27:09.870Z,30.95
2019-04-10T14:29:38.636Z,31.15
2019-04-10T14:32:09.216Z,30.78
2019-04-10T14:34:38.795Z,30.26
2019-04-10T14:37:09.375Z,30.16
2019-04-10T14:39:37.669Z,29.88
2019-04-10T14:42:06.501Z,29.03
2019-04-10T14:44:34.934Z,29.38
2019-04-10T14:47:04.426Z,29.64
2019-04-10T14:49:33.419Z,30.07
2019-04-10T14:52:03.086Z,30.47
2019-04-10T14:54:32.180Z,30.14
2019-04-10T14:57:00.709Z,30.56
2019-04-10T14:59:28.917Z,30.80
2019-04-10T15:01:58.006Z,30.85
2019-04-10T15:04:26.938Z,30.52
2019-04-10T15:06:55.570Z,30.46
2019-04-10T15:09:26.154Z,29.71
2019-04-10T15:11:55.259Z,29.70
2019-04-10T15:14:23.846Z,30.00
2019-04-10T15:16:55.501Z,29.99
2019-04-10T15:19:22.743Z,29.97
2019-04-10T15:21:52.231Z,30.19
2019-04-10T15:24:21.627Z,29.84
2019-04-10T15:26:50.964Z,30.33
2019-04-10T15:29:20.399Z,30.54
2019-04-10T15:31:50.206Z,30.96
2019-04-10T15:34:18.472Z,31.01
2019-04-10T15:36:48.040Z,31.20
2019-04-10T15:39:16.895Z,31.41
2019-04-10T15:41:45.582Z,31.23
2019-04-10T15:44:14.884Z,31.23
2019-04-10T15:46:43.493Z,31.36
2019-04-10T15:49:11.843Z,31.70
2019-04-10T15:51:41.273Z,31.60
2019-04-10T15:54:10.033Z,30.69
2019-04-10T15:56:38.265Z,30.86
2019-04-10T15:59:06.487Z,30.88
2019-04-10T16:01:35.145Z,30.74
2019-04-10T16:04:03.397Z,30.88
2019-04-10T16:06:31.641Z,30.91
2019-04-10T16:09:00.910Z,30.77
2019-04-10T16:11:43.798Z,30.99
2019-04-10T16:14:22.018Z,30.60
2019-04-10T16:16:52.887Z,30.40
2019-04-10T16:19:39.064Z,30.18
2019-04-10T16:22:08.965Z,30.01
2019-04-10T16:24:37.699Z,29.89
2019-04-10T16:27:07.585Z,30.29
2019-04-10T16:29:36.471Z,30.21
2019-04-10T16:32:06.333Z,30.04
2019-04-10T16:34:34.576Z,30.38
2019-04-10T16:37:02.904Z,29.73
2019-04-10T16:39:31.453Z,29.61
2019-04-10T16:42:00.047Z,29.05
2019-04-10T16:44:28.950Z,28.92
2019-04-10T16:46:57.463Z,28.71
2019-04-10T16:49:25.820Z,28.50
2019-04-10T16:51:54.015Z,28.82
2019-04-10T16:54:22.244Z,28.18
2019-04-10T16:56:50.953Z,27.68
2019-04-10T16:59:19.298Z,27.66
2019-04-10T17:01:47.862Z,27.38
2019-04-10T17:04:16.792Z,27.60
2019-04-10T17:06:46.112Z,27.62
2019-04-10T17:09:16.581Z,28.38
2019-04-10T17:11:45.218Z,29.69
2019-04-10T17:14:13.776Z,30.42
2019-04-10T17:16:42.057Z,31.18
2019-04-10T17:19:10.359Z,31.73
2019-04-10T17:21:38.909Z,31.92
2019-04-10T17:24:07.224Z,32.09
2019-04-10T17:26:35.503Z,32.54
2019-04-10T17:29:04.943Z,32.79
2019-04-10T17:31:33.183Z,33.38
2019-04-10T17:34:02.800Z,33.80
2019-04-10T17:36:31.086Z,34.02
2019-04-10T17:39:00.809Z,34.17
2019-04-10T17:41:29.516Z,34.02
2019-04-10T17:43:58.819Z,33.69
2019-04-10T17:46:27.651Z,33.86
2019-04-10T17:48:56.025Z,34.26
2019-04-10T17:51:25.788Z,34.83
2019-04-10T17:53:54.136Z,35.22
2019-04-10T17:56:22.364Z,35.29
2019-04-10T17:58:50.577Z,35.55
2019-04-10T18:01:20.874Z,35.83
2019-04-10T18:03:53.678Z,36.10
2019-04-10T18:06:19.387Z,36.59
2019-04-10T18:08:47.668Z,36.91
2019-04-10T18:11:16.186Z,37.36
2019-04-10T18:13:44.984Z,37.63
2019-04-10T18:16:13.270Z,37.96
2019-04-10T18:18:42.148Z,38.08
2019-04-10T18:21:10.809Z,38.77
2019-04-10T18:23:39.754Z,39.16
2019-04-10T18:26:08.709Z,39.73
2019-04-10T18:28:37.999Z,40.21
2019-04-10T18:31:06.593Z,41.17
2019-04-10T18:33:36.333Z,41.99
2019-04-10T18:36:05.006Z,42.49
2019-04-10T18:38:33.558Z,43.70
2019-04-10T18:41:05.256Z,44.00
2019-04-10T18:43:32.016Z,44.44
2019-04-10T18:46:08.729Z,44.89
2019-04-10T18:48:30.429Z,45.20
2019-04-10T18:50:59.541Z,45.47
2019-04-10T18:53:28.873Z,45.94
2019-04-10T18:55:57.243Z,46.11
2019-04-10T18:58:30.221Z,46.22
2019-04-10T19:01:16.794Z,46.54
2019-04-10T19:03:59.692Z,46.83
2019-04-10T19:06:28.635Z,47.09
2019-04-10T19:09:07.752Z,47.66
2019-04-10T19:11:32.422Z,47.95
2019-04-10T19:13:57.256Z,47.99
2019-04-10T19:16:25.764Z,48.47
2019-04-10T19:18:55.300Z,49.00
2019-04-10T19:21:24.546Z,49.20
2019-04-10T19:23:55.599Z,49.39
2019-04-10T19:26:24.113Z,49.44
2019-04-10T19:28:52.935Z,49.74
2019-04-10T19:31:24.583Z,49.83
2019-04-10T19:33:53.320Z,50.04
2019-04-10T19:36:21.879Z,50.20
2019-04-10T19:38:50.129Z,50.40
2019-04-10T19:41:25.248Z,50.76
2019-04-10T19:43:48.640Z,51.17
2019-04-10T19:46:17.553Z,51.53
2019-04-10T19:48:49.769Z,51.67
2019-04-10T19:51:16.397Z,51.83
2019-04-10T19:53:45.772Z,52.09
2019-04-10T19:56:14.098Z,52.42
2019-04-10T19:58:42.326Z,52.48
2019-04-10T20:01:10.922Z,53.23
2019-04-10T20:03:39.690Z,53.07
2019-04-10T20:06:07.975Z,53.81
2019-04-10T20:08:36.165Z,54.17
2019-04-10T20:11:04.541Z,54.52
2019-04-10T20:13:32.711Z,54.48
2019-04-10T20:16:01.379Z,55.40
2019-04-10T20:18:29.625Z,55.78
2019-04-10T20:20:58.247Z,56.20
2019-04-10T20:23:27.794Z,56.67
2019-04-10T20:25:59.319Z,56.62
2019-04-10T20:28:28.679Z,56.79
2019-04-10T20:30:58.089Z,57.57
2019-04-10T20:33:27.180Z,57.56
2019-04-10T20:35:56.380Z,57.89
2019-04-10T20:38:25.204Z,58.34
2019-04-10T20:40:54.096Z,58.26
2019-04-10T20:43:22.779Z,58.68
2019-04-10T20:45:51.281Z,58.97
2019-04-10T20:48:20.348Z,58.77
2019-04-10T20:50:50.203Z,58.92
2019-04-10T20:53:19.917Z,59.46
2019-04-10T20:55:48.301Z,59.31
2019-04-10T20:58:17.643Z,59.80
2019-04-10T21:00:47.072Z,59.96
2019-04-10T21:03:15.714Z,60.03
2019-04-10T21:05:44.548Z,59.93
2019-04-10T21:08:13.738Z,59.76
2019-04-10T21:10:42.896Z,59.68
2019-04-10T21:13:11.215Z,59.73
2019-04-10T21:15:39.544Z,59.53
2019-04-10T21:18:07.984Z,59.44
2019-04-10T21:20:36.608Z,59.37
2019-04-10T21:23:05.585Z,59.08
2019-04-10T21:25:35.045Z,59.25
2019-04-10T21:28:04.734Z,59.15
2019-04-10T21:30:46.613Z,59.16
2019-04-10T21:33:25.423Z,59.21
2019-04-10T21:35:54.137Z,59.20
2019-04-10T21:38:23.492Z,59.29
2019-04-10T21:40:51.865Z,59.42
2019-04-10T21:43:21.349Z,59.50
2019-04-10T21:45:50.210Z,59.39
2019-04-10T21:48:18.904Z,59.43
2019-04-10T21:50:47.121Z,59.61
2019-04-10T21:53:16.361Z,59.44
2019-04-10T21:55:45.849Z,59.52
2019-04-10T21:58:14.499Z,59.50
2019-04-10T22:00:53.021Z,59.56
2019-04-10T22:03:21.627Z,59.51
2019-04-10T22:06:01.535Z,59.57
2019-04-10T22:08:31.766Z,59.62
2019-04-10T22:11:00.798Z,59.69
2019-04-10T22:13:30.195Z,59.67
2019-04-10T22:15:59.559Z,59.81
2019-04-10T22:18:28.006Z,59.84
2019-04-10T22:20:57.173Z,59.80
2019-04-10T22:23:26.559Z,60.01
2019-04-10T22:25:54.826Z,60.12
2019-04-10T22:28:23.293Z,60.06
2019-04-10T22:30:52.585Z,60.13
2019-04-10T22:33:22.279Z,60.09
2019-04-10T22:35:50.582Z,60.24
2019-04-10T22:38:19.413Z,60.15
2019-04-10T22:40:48.282Z,60.31
2019-04-10T22:43:16.495Z,60.40
2019-04-10T22:45:44.697Z,60.22
2019-04-10T22:48:12.950Z,60.17
2019-04-10T22:50:41.532Z,60.26
2019-04-10T22:53:10.010Z,60.20
2019-04-10T22:55:38.494Z,59.94
2019-04-10T22:58:07.285Z,59.52
2019-04-10T23:00:35.557Z,59.39
2019-04-10T23:03:03.728Z,59.24
2019-04-10T23:05:32.297Z,59.06
2019-04-10T23:08:01.119Z,58.82
2019-04-10T23:10:29.519Z,58.58
2019-04-10T23:13:01.390Z,58.40
2019-04-10T23:15:27.673Z,58.43
2019-04-10T23:17:57.265Z,58.41
2019-04-10T23:20:26.044Z,58.28
2019-04-10T23:22:54.820Z,58.18
2019-04-10T23:25:23.073Z,57.83
2019-04-10T23:27:53.623Z,57.57
2019-04-10T23:30:21.608Z,57.05
2019-04-10T23:32:49.783Z,56.90
2019-04-10T23:35:19.098Z,56.58
2019-04-10T23:37:47.403Z,56.21
2019-04-10T23:40:16.762Z,56.22
2019-04-10T23:42:46.255Z,56.25
2019-04-10T23:45:15.543Z,56.24
2019-04-10T23:47:44.440Z,56.32
2019-04-10T23:50:12.866Z,56.39
2019-04-10T23:52:42.018Z,56.30
2019-04-10T23:55:10.509Z,56.25
2019-04-10T23:57:38.730Z,56.46
